sensor_id;sensor_type;location;lat;lon;timestamp;P1;durP1;ratioP1;P2;durP2;ratioP2
16262;SDS011;8239;48.594;8.598;2023-08-30T00:01:03;16.70;;;14.90;;
16262;SDS011;8239;48.594;8.598;2023-08-30T00:03:31;17.13;;;14.70;;
16262;SDS011;8239;48.594;8.598;2023-08-30T00:06:01;39.87;;;16.20;;
16262;SDS011;8239;48.594;8.598;2023-08-30T00:08:29;370.30;;;31.50;;
16262;SDS011;8239;48.594;8.598;2023-08-30T00:10:56;358.10;;;29.93;;
16262;SDS011;8239;48.594;8.598;2023-08-30T00:13:25;286.00;;;23.50;;
16262;SDS011;8239;48.594;8.598;2023-08-30T00:15:52;217.33;;;23.93;;
16262;SDS011;8239;48.594;8.598;2023-08-30T00:18:19;80.57;;;18.90;;
16262;SDS011;8239;48.594;8.598;2023-08-30T00:20:47;57.53;;;16.70;;
16262;SDS011;8239;48.594;8.598;2023-08-30T00:23:14;17.03;;;14.77;;
16262;SDS011;8239;48.594;8.598;2023-08-30T00:25:42;18.57;;;15.27;;
16262;SDS011;8239;48.594;8.598;2023-08-30T00:28:08;18.83;;;15.60;;
16262;SDS011;8239;48.594;8.598;2023-08-30T00:30:37;17.30;;;15.43;;
16262;SDS011;8239;48.594;8.598;2023-08-30T00:33:04;17.00;;;15.00;;
16262;SDS011;8239;48.594;8.598;2023-08-30T00:35:31;17.30;;;15.50;;
16262;SDS011;8239;48.594;8.598;2023-08-30T00:37:58;19.63;;;15.37;;
16262;SDS011;8239;48.594;8.598;2023-08-30T00:40:25;28.53;;;16.87;;
16262;SDS011;8239;48.594;8.598;2023-08-30T00:42:52;53.57;;;19.23;;
16262;SDS011;8239;48.594;8.598;2023-08-30T00:45:19;39.20;;;17.03;;
16262;SDS011;8239;48.594;8.598;2023-08-30T00:47:47;23.70;;;16.63;;
16262;SDS011;8239;48.594;8.598;2023-08-30T00:50:14;21.03;;;16.63;;
16262;SDS011;8239;48.594;8.598;2023-08-30T00:52:42;21.67;;;16.57;;
16262;SDS011;8239;48.594;8.598;2023-08-30T00:55:10;19.90;;;16.03;;
16262;SDS011;8239;48.594;8.598;2023-08-30T00:57:37;20.70;;;16.27;;
16262;SDS011;8239;48.594;8.598;2023-08-30T01:00:05;21.03;;;17.20;;
16262;SDS011;8239;48.594;8.598;2023-08-30T01:02:33;22.53;;;16.40;;
16262;SDS011;8239;48.594;8.598;2023-08-30T01:05:03;21.43;;;16.57;;
16262;SDS011;8239;48.594;8.598;2023-08-30T01:07:30;22.40;;;17.00;;
16262;SDS011;8239;48.594;8.598;2023-08-30T01:09:57;21.33;;;16.77;;
16262;SDS011;8239;48.594;8.598;2023-08-30T01:12:27;20.63;;;15.87;;
16262;SDS011;8239;48.594;8.598;2023-08-30T01:15:02;18.33;;;15.00;;
16262;SDS011;8239;48.594;8.598;2023-08-30T01:17:35;18.70;;;14.53;;
16262;SDS011;8239;48.594;8.598;2023-08-30T01:20:05;19.20;;;14.00;;
16262;SDS011;8239;48.594;8.598;2023-08-30T01:22:40;20.33;;;14.10;;
16262;SDS011;8239;48.594;8.598;2023-08-30T01:25:16;20.37;;;14.30;;
16262;SDS011;8239;48.594;8.598;2023-08-30T01:27:52;17.03;;;13.73;;
16262;SDS011;8239;48.594;8.598;2023-08-30T01:30:21;18.27;;;13.47;;
16262;SDS011;8239;48.594;8.598;2023-08-30T01:32:50;18.80;;;13.13;;
16262;SDS011;8239;48.594;8.598;2023-08-30T01:35:18;16.17;;;12.97;;
16262;SDS011;8239;48.594;8.598;2023-08-30T01:37:47;22.30;;;14.03;;
16262;SDS011;8239;48.594;8.598;2023-08-30T01:40:14;21.13;;;14.53;;
16262;SDS011;8239;48.594;8.598;2023-08-30T01:42:43;20.00;;;14.43;;
16262;SDS011;8239;48.594;8.598;2023-08-30T01:45:14;15.97;;;13.03;;
16262;SDS011;8239;48.594;8.598;2023-08-30T01:47:42;17.27;;;13.83;;
16262;SDS011;8239;48.594;8.598;2023-08-30T01:50:13;16.00;;;13.10;;
16262;SDS011;8239;48.594;8.598;2023-08-30T01:52:42;15.30;;;13.07;;
16262;SDS011;8239;48.594;8.598;2023-08-30T01:55:09;19.07;;;14.90;;
16262;SDS011;8239;48.594;8.598;2023-08-30T01:57:37;16.30;;;13.10;;
16262;SDS011;8239;48.594;8.598;2023-08-30T02:00:05;20.03;;;14.57;;
16262;SDS011;8239;48.594;8.598;2023-08-30T02:02:34;16.63;;;13.73;;
16262;SDS011;8239;48.594;8.598;2023-08-30T02:05:02;20.17;;;14.50;;
16262;SDS011;8239;48.594;8.598;2023-08-30T02:07:30;16.60;;;13.30;;
16262;SDS011;8239;48.594;8.598;2023-08-30T02:10:05;18.97;;;13.83;;
16262;SDS011;8239;48.594;8.598;2023-08-30T02:12:37;313.02;;;30.73;;
16262;SDS011;8239;48.594;8.598;2023-08-30T02:15:08;168.40;;;19.33;;
16262;SDS011;8239;48.594;8.598;2023-08-30T02:17:38;247.17;;;22.27;;
16262;SDS011;8239;48.594;8.598;2023-08-30T02:20:05;200.27;;;21.33;;
16262;SDS011;8239;48.594;8.598;2023-08-30T02:22:33;195.03;;;25.33;;
16262;SDS011;8239;48.594;8.598;2023-08-30T02:25:00;230.17;;;27.77;;
16262;SDS011;8239;48.594;8.598;2023-08-30T02:27:29;157.00;;;22.97;;
16262;SDS011;8239;48.594;8.598;2023-08-30T02:29:56;339.13;;;25.83;;
16262;SDS011;8239;48.594;8.598;2023-08-30T02:32:23;272.27;;;25.33;;
16262;SDS011;8239;48.594;8.598;2023-08-30T02:34:52;82.27;;;19.20;;
16262;SDS011;8239;48.594;8.598;2023-08-30T02:37:19;65.63;;;20.53;;
16262;SDS011;8239;48.594;8.598;2023-08-30T02:39:46;57.97;;;19.67;;
16262;SDS011;8239;48.594;8.598;2023-08-30T02:42:14;160.73;;;25.90;;
16262;SDS011;8239;48.594;8.598;2023-08-30T02:44:41;48.73;;;17.87;;
16262;SDS011;8239;48.594;8.598;2023-08-30T02:47:08;27.73;;;16.57;;
16262;SDS011;8239;48.594;8.598;2023-08-30T02:49:35;23.77;;;15.37;;
16262;SDS011;8239;48.594;8.598;2023-08-30T02:52:04;23.27;;;16.17;;
16262;SDS011;8239;48.594;8.598;2023-08-30T02:54:31;19.33;;;14.80;;
16262;SDS011;8239;48.594;8.598;2023-08-30T02:56:58;22.87;;;15.27;;
16262;SDS011;8239;48.594;8.598;2023-08-30T02:59:25;19.43;;;14.77;;
16262;SDS011;8239;48.594;8.598;2023-08-30T03:01:51;19.60;;;15.07;;
16262;SDS011;8239;48.594;8.598;2023-08-30T03:04:18;22.70;;;15.43;;
16262;SDS011;8239;48.594;8.598;2023-08-30T03:06:45;20.50;;;14.97;;
16262;SDS011;8239;48.594;8.598;2023-08-30T03:09:14;20.23;;;15.20;;
16262;SDS011;8239;48.594;8.598;2023-08-30T03:11:41;22.20;;;15.33;;
16262;SDS011;8239;48.594;8.598;2023-08-30T03:14:07;19.23;;;14.67;;
16262;SDS011;8239;48.594;8.598;2023-08-30T03:16:34;18.87;;;15.00;;
16262;SDS011;8239;48.594;8.598;2023-08-30T03:19:01;20.50;;;15.40;;
16262;SDS011;8239;48.594;8.598;2023-08-30T03:21:29;20.57;;;14.50;;
16262;SDS011;8239;48.594;8.598;2023-08-30T03:23:56;21.37;;;15.17;;
16262;SDS011;8239;48.594;8.598;2023-08-30T03:26:26;19.27;;;14.67;;
16262;SDS011;8239;48.594;8.598;2023-08-30T03:28:53;19.33;;;14.43;;
16262;SDS011;8239;48.594;8.598;2023-08-30T03:31:21;21.00;;;14.20;;
16262;SDS011;8239;48.594;8.598;2023-08-30T03:33:48;20.47;;;14.23;;
16262;SDS011;8239;48.594;8.598;2023-08-30T03:36:16;21.13;;;14.97;;
16262;SDS011;8239;48.594;8.598;2023-08-30T03:38:44;18.37;;;13.83;;
16262;SDS011;8239;48.594;8.598;2023-08-30T03:41:11;18.03;;;13.23;;
16262;SDS011;8239;48.594;8.598;2023-08-30T03:43:40;16.50;;;13.47;;
16262;SDS011;8239;48.594;8.598;2023-08-30T03:46:07;18.70;;;13.37;;
16262;SDS011;8239;48.594;8.598;2023-08-30T03:48:36;19.37;;;13.10;;
16262;SDS011;8239;48.594;8.598;2023-08-30T03:51:03;16.07;;;12.67;;
16262;SDS011;8239;48.594;8.598;2023-08-30T03:53:30;17.13;;;12.87;;
16262;SDS011;8239;48.594;8.598;2023-08-30T03:55:58;14.47;;;11.90;;
16262;SDS011;8239;48.594;8.598;2023-08-30T03:58:25;54.80;;;15.80;;
16262;SDS011;8239;48.594;8.598;2023-08-30T04:00:53;470.03;;;34.77;;
16262;SDS011;8239;48.594;8.598;2023-08-30T04:03:20;112.43;;;20.40;;
16262;SDS011;8239;48.594;8.598;2023-08-30T04:05:47;605.20;;;42.17;;
16262;SDS011;8239;48.594;8.598;2023-08-30T04:08:20;405.87;;;31.83;;
16262;SDS011;8239;48.594;8.598;2023-08-30T04:10:47;383.27;;;27.57;;
16262;SDS011;8239;48.594;8.598;2023-08-30T04:13:14;458.37;;;37.33;;
16262;SDS011;8239;48.594;8.598;2023-08-30T04:15:44;713.03;;;41.00;;
16262;SDS011;8239;48.594;8.598;2023-08-30T04:18:12;454.00;;;35.03;;
16262;SDS011;8239;48.594;8.598;2023-08-30T04:20:42;483.57;;;38.10;;
16262;SDS011;8239;48.594;8.598;2023-08-30T04:23:10;134.27;;;19.70;;
16262;SDS011;8239;48.594;8.598;2023-08-30T04:25:37;240.43;;;25.00;;
16262;SDS011;8239;48.594;8.598;2023-08-30T04:28:04;71.37;;;16.50;;
16262;SDS011;8239;48.594;8.598;2023-08-30T04:30:31;16.60;;;12.97;;
16262;SDS011;8239;48.594;8.598;2023-08-30T04:32:59;16.30;;;12.50;;
16262;SDS011;8239;48.594;8.598;2023-08-30T04:35:30;16.27;;;13.07;;
16262;SDS011;8239;48.594;8.598;2023-08-30T04:37:57;15.90;;;12.43;;
16262;SDS011;8239;48.594;8.598;2023-08-30T04:40:25;16.67;;;13.00;;
16262;SDS011;8239;48.594;8.598;2023-08-30T04:42:52;20.90;;;14.37;;
16262;SDS011;8239;48.594;8.598;2023-08-30T04:45:19;17.27;;;13.27;;
16262;SDS011;8239;48.594;8.598;2023-08-30T04:47:49;22.47;;;14.47;;
16262;SDS011;8239;48.594;8.598;2023-08-30T04:50:16;20.20;;;13.93;;
16262;SDS011;8239;48.594;8.598;2023-08-30T04:52:44;18.27;;;13.40;;
16262;SDS011;8239;48.594;8.598;2023-08-30T04:55:11;14.37;;;12.53;;
16262;SDS011;8239;48.594;8.598;2023-08-30T04:57:38;15.30;;;12.93;;
16262;SDS011;8239;48.594;8.598;2023-08-30T05:00:10;16.97;;;12.30;;
16262;SDS011;8239;48.594;8.598;2023-08-30T05:02:37;647.13;;;35.90;;
16262;SDS011;8239;48.594;8.598;2023-08-30T05:05:06;349.33;;;25.63;;
16262;SDS011;8239;48.594;8.598;2023-08-30T05:07:33;310.17;;;28.17;;
16262;SDS011;8239;48.594;8.598;2023-08-30T05:10:01;17.60;;;12.00;;
16262;SDS011;8239;48.594;8.598;2023-08-30T05:12:29;12.57;;;11.23;;
16262;SDS011;8239;48.594;8.598;2023-08-30T05:14:56;12.00;;;10.70;;
16262;SDS011;8239;48.594;8.598;2023-08-30T05:17:23;12.97;;;10.73;;
16262;SDS011;8239;48.594;8.598;2023-08-30T05:19:50;12.70;;;11.27;;
16262;SDS011;8239;48.594;8.598;2023-08-30T05:22:17;12.33;;;10.90;;
16262;SDS011;8239;48.594;8.598;2023-08-30T05:24:44;14.10;;;10.47;;
16262;SDS011;8239;48.594;8.598;2023-08-30T05:27:12;12.27;;;10.73;;
16262;SDS011;8239;48.594;8.598;2023-08-30T05:29:39;11.20;;;10.00;;
16262;SDS011;8239;48.594;8.598;2023-08-30T05:32:06;10.50;;;9.50;;
16262;SDS011;8239;48.594;8.598;2023-08-30T05:34:33;11.97;;;9.77;;
16262;SDS011;8239;48.594;8.598;2023-08-30T05:37:00;608.10;;;31.73;;
16262;SDS011;8239;48.594;8.598;2023-08-30T05:39:27;575.17;;;35.37;;
16262;SDS011;8239;48.594;8.598;2023-08-30T05:41:54;201.90;;;20.23;;
16262;SDS011;8239;48.594;8.598;2023-08-30T05:44:23;13.80;;;9.23;;
16262;SDS011;8239;48.594;8.598;2023-08-30T05:46:50;11.70;;;8.97;;
16262;SDS011;8239;48.594;8.598;2023-08-30T05:49:17;10.47;;;9.03;;
16262;SDS011;8239;48.594;8.598;2023-08-30T05:51:44;9.43;;;8.53;;
16262;SDS011;8239;48.594;8.598;2023-08-30T05:54:10;11.30;;;8.40;;
16262;SDS011;8239;48.594;8.598;2023-08-30T05:56:37;14.27;;;8.83;;
16262;SDS011;8239;48.594;8.598;2023-08-30T05:59:04;9.53;;;8.43;;
16262;SDS011;8239;48.594;8.598;2023-08-30T06:01:33;10.20;;;9.20;;
16262;SDS011;8239;48.594;8.598;2023-08-30T06:04:00;9.97;;;8.57;;
16262;SDS011;8239;48.594;8.598;2023-08-30T06:06:29;9.53;;;8.63;;
16262;SDS011;8239;48.594;8.598;2023-08-30T06:08:57;7.73;;;7.03;;
16262;SDS011;8239;48.594;8.598;2023-08-30T06:11:24;8.60;;;7.17;;
16262;SDS011;8239;48.594;8.598;2023-08-30T06:13:51;7.40;;;6.70;;
16262;SDS011;8239;48.594;8.598;2023-08-30T06:16:18;7.67;;;6.87;;
16262;SDS011;8239;48.594;8.598;2023-08-30T06:18:46;6.90;;;6.30;;
16262;SDS011;8239;48.594;8.598;2023-08-30T06:21:13;7.10;;;6.50;;
16262;SDS011;8239;48.594;8.598;2023-08-30T06:23:40;6.33;;;5.83;;
16262;SDS011;8239;48.594;8.598;2023-08-30T06:26:07;6.00;;;5.57;;
16262;SDS011;8239;48.594;8.598;2023-08-30T06:28:34;5.97;;;5.40;;
16262;SDS011;8239;48.594;8.598;2023-08-30T06:31:01;6.03;;;5.53;;
16262;SDS011;8239;48.594;8.598;2023-08-30T06:33:28;5.63;;;5.00;;
16262;SDS011;8239;48.594;8.598;2023-08-30T06:35:56;5.33;;;4.83;;
16262;SDS011;8239;48.594;8.598;2023-08-30T06:38:23;5.23;;;4.83;;
16262;SDS011;8239;48.594;8.598;2023-08-30T06:40:52;5.40;;;5.07;;
16262;SDS011;8239;48.594;8.598;2023-08-30T06:43:19;5.60;;;5.10;;
16262;SDS011;8239;48.594;8.598;2023-08-30T06:45:45;5.13;;;4.73;;
16262;SDS011;8239;48.594;8.598;2023-08-30T06:48:12;5.13;;;4.60;;
16262;SDS011;8239;48.594;8.598;2023-08-30T06:50:41;5.63;;;5.00;;
16262;SDS011;8239;48.594;8.598;2023-08-30T06:53:10;6.20;;;4.30;;
16262;SDS011;8239;48.594;8.598;2023-08-30T06:55:37;4.50;;;4.20;;
16262;SDS011;8239;48.594;8.598;2023-08-30T06:58:04;5.67;;;4.10;;
16262;SDS011;8239;48.594;8.598;2023-08-30T07:00:31;11.03;;;5.50;;
16262;SDS011;8239;48.594;8.598;2023-08-30T07:02:58;9.87;;;5.23;;
16262;SDS011;8239;48.594;8.598;2023-08-30T07:05:26;8.30;;;4.97;;
16262;SDS011;8239;48.594;8.598;2023-08-30T07:07:52;7.07;;;4.60;;
16262;SDS011;8239;48.594;8.598;2023-08-30T07:10:21;3.83;;;3.53;;
16262;SDS011;8239;48.594;8.598;2023-08-30T07:12:48;3.90;;;3.60;;
16262;SDS011;8239;48.594;8.598;2023-08-30T07:15:15;3.57;;;3.37;;
16262;SDS011;8239;48.594;8.598;2023-08-30T07:17:43;19.07;;;6.00;;
16262;SDS011;8239;48.594;8.598;2023-08-30T07:20:10;26.30;;;7.50;;
16262;SDS011;8239;48.594;8.598;2023-08-30T07:22:37;13.07;;;5.43;;
16262;SDS011;8239;48.594;8.598;2023-08-30T07:25:05;14.97;;;5.00;;
16262;SDS011;8239;48.594;8.598;2023-08-30T07:27:35;11.63;;;4.43;;
16262;SDS011;8239;48.594;8.598;2023-08-30T07:30:02;15.27;;;4.73;;
16262;SDS011;8239;48.594;8.598;2023-08-30T07:32:30;32.23;;;6.90;;
16262;SDS011;8239;48.594;8.598;2023-08-30T07:34:57;34.05;;;6.55;;
16262;SDS011;8239;48.594;8.598;2023-08-30T07:37:24;12.67;;;4.60;;
16262;SDS011;8239;48.594;8.598;2023-08-30T07:39:51;8.52;;;4.50;;
16262;SDS011;8239;48.594;8.598;2023-08-30T07:42:18;27.40;;;6.47;;
16262;SDS011;8239;48.594;8.598;2023-08-30T07:44:47;15.00;;;6.07;;
16262;SDS011;8239;48.594;8.598;2023-08-30T07:47:14;15.03;;;6.03;;
16262;SDS011;8239;48.594;8.598;2023-08-30T07:49:45;12.97;;;6.80;;
16262;SDS011;8239;48.594;8.598;2023-08-30T07:52:12;12.95;;;6.53;;
16262;SDS011;8239;48.594;8.598;2023-08-30T07:54:39;18.33;;;7.30;;
16262;SDS011;8239;48.594;8.598;2023-08-30T07:57:07;15.80;;;6.53;;
16262;SDS011;8239;48.594;8.598;2023-08-30T07:59:34;15.20;;;6.43;;
16262;SDS011;8239;48.594;8.598;2023-08-30T08:02:03;13.40;;;7.18;;
16262;SDS011;8239;48.594;8.598;2023-08-30T08:04:32;12.53;;;6.73;;
16262;SDS011;8239;48.594;8.598;2023-08-30T08:07:00;19.60;;;7.32;;
16262;SDS011;8239;48.594;8.598;2023-08-30T08:09:27;15.38;;;6.70;;
16262;SDS011;8239;48.594;8.598;2023-08-30T08:11:55;8.48;;;5.78;;
16262;SDS011;8239;48.594;8.598;2023-08-30T08:14:22;5.40;;;4.90;;
16262;SDS011;8239;48.594;8.598;2023-08-30T08:16:49;6.07;;;5.43;;
16262;SDS011;8239;48.594;8.598;2023-08-30T08:19:17;6.13;;;5.60;;
16262;SDS011;8239;48.594;8.598;2023-08-30T08:21:46;5.07;;;4.60;;
16262;SDS011;8239;48.594;8.598;2023-08-30T08:24:13;4.90;;;4.50;;
16262;SDS011;8239;48.594;8.598;2023-08-30T08:26:40;4.35;;;4.05;;
16262;SDS011;8239;48.594;8.598;2023-08-30T08:29:07;4.30;;;4.00;;
16262;SDS011;8239;48.594;8.598;2023-08-30T08:31:34;4.50;;;4.03;;
16262;SDS011;8239;48.594;8.598;2023-08-30T08:34:07;4.18;;;3.88;;
16262;SDS011;8239;48.594;8.598;2023-08-30T08:36:37;7.32;;;4.78;;
16262;SDS011;8239;48.594;8.598;2023-08-30T08:39:04;7.82;;;4.45;;
16262;SDS011;8239;48.594;8.598;2023-08-30T08:41:34;5.63;;;3.88;;
16262;SDS011;8239;48.594;8.598;2023-08-30T08:44:05;4.50;;;3.65;;
16262;SDS011;8239;48.594;8.598;2023-08-30T08:46:33;2.97;;;2.72;;
16262;SDS011;8239;48.594;8.598;2023-08-30T08:49:02;2.85;;;2.65;;
16262;SDS011;8239;48.594;8.598;2023-08-30T08:51:35;4.45;;;2.67;;
16262;SDS011;8239;48.594;8.598;2023-08-30T08:54:04;10.52;;;4.22;;
16262;SDS011;8239;48.594;8.598;2023-08-30T08:56:31;10.93;;;3.40;;
16262;SDS011;8239;48.594;8.598;2023-08-30T08:58:59;2.88;;;2.58;;
16262;SDS011;8239;48.594;8.598;2023-08-30T09:01:26;3.15;;;2.38;;
16262;SDS011;8239;48.594;8.598;2023-08-30T09:03:53;7.45;;;3.00;;
16262;SDS011;8239;48.594;8.598;2023-08-30T09:06:21;3.60;;;2.42;;
16262;SDS011;8239;48.594;8.598;2023-08-30T09:08:48;2.40;;;2.30;;
16262;SDS011;8239;48.594;8.598;2023-08-30T09:11:16;3.03;;;2.30;;
16262;SDS011;8239;48.594;8.598;2023-08-30T09:13:43;10.13;;;3.50;;
16262;SDS011;8239;48.594;8.598;2023-08-30T09:16:13;2.90;;;2.60;;
16262;SDS011;8239;48.594;8.598;2023-08-30T09:18:41;2.53;;;2.30;;
16262;SDS011;8239;48.594;8.598;2023-08-30T09:21:08;2.75;;;2.30;;
16262;SDS011;8239;48.594;8.598;2023-08-30T09:23:36;6.07;;;2.90;;
16262;SDS011;8239;48.594;8.598;2023-08-30T09:26:03;4.25;;;2.40;;
16262;SDS011;8239;48.594;8.598;2023-08-30T09:28:41;2.50;;;2.28;;
16262;SDS011;8239;48.594;8.598;2023-08-30T09:31:16;2.13;;;2.03;;
16262;SDS011;8239;48.594;8.598;2023-08-30T09:33:44;2.58;;;2.38;;
16262;SDS011;8239;48.594;8.598;2023-08-30T09:36:13;2.90;;;2.13;;
16262;SDS011;8239;48.594;8.598;2023-08-30T09:38:39;2.72;;;2.28;;
16262;SDS011;8239;48.594;8.598;2023-08-30T09:41:06;2.30;;;2.20;;
16262;SDS011;8239;48.594;8.598;2023-08-30T09:43:35;2.33;;;2.13;;
16262;SDS011;8239;48.594;8.598;2023-08-30T09:46:08;2.30;;;2.10;;
16262;SDS011;8239;48.594;8.598;2023-08-30T09:48:35;2.40;;;2.20;;
16262;SDS011;8239;48.594;8.598;2023-08-30T09:51:05;2.30;;;2.20;;
16262;SDS011;8239;48.594;8.598;2023-08-30T09:53:36;2.55;;;2.28;;
16262;SDS011;8239;48.594;8.598;2023-08-30T09:56:11;2.65;;;2.40;;
16262;SDS011;8239;48.594;8.598;2023-08-30T09:58:41;2.30;;;2.10;;
16262;SDS011;8239;48.594;8.598;2023-08-30T10:01:09;2.40;;;2.30;;
16262;SDS011;8239;48.594;8.598;2023-08-30T10:03:37;2.20;;;2.10;;
16262;SDS011;8239;48.594;8.598;2023-08-30T10:06:05;2.80;;;2.60;;
16262;SDS011;8239;48.594;8.598;2023-08-30T10:08:33;2.20;;;2.10;;
16262;SDS011;8239;48.594;8.598;2023-08-30T10:11:02;2.47;;;2.28;;
16262;SDS011;8239;48.594;8.598;2023-08-30T10:13:29;2.10;;;2.00;;
16262;SDS011;8239;48.594;8.598;2023-08-30T10:16:00;2.00;;;1.90;;
16262;SDS011;8239;48.594;8.598;2023-08-30T10:18:31;2.10;;;2.00;;
16262;SDS011;8239;48.594;8.598;2023-08-30T10:21:02;2.20;;;2.03;;
16262;SDS011;8239;48.594;8.598;2023-08-30T10:23:30;2.65;;;2.42;;
16262;SDS011;8239;48.594;8.598;2023-08-30T10:25:58;2.10;;;2.00;;
16262;SDS011;8239;48.594;8.598;2023-08-30T10:28:26;2.50;;;2.30;;
16262;SDS011;8239;48.594;8.598;2023-08-30T10:30:54;2.20;;;2.10;;
16262;SDS011;8239;48.594;8.598;2023-08-30T10:33:23;2.47;;;2.30;;
16262;SDS011;8239;48.594;8.598;2023-08-30T10:35:51;2.60;;;2.40;;
16262;SDS011;8239;48.594;8.598;2023-08-30T10:38:24;3.95;;;2.60;;
16262;SDS011;8239;48.594;8.598;2023-08-30T10:40:52;2.65;;;2.45;;
16262;SDS011;8239;48.594;8.598;2023-08-30T10:43:27;2.55;;;2.40;;
16262;SDS011;8239;48.594;8.598;2023-08-30T10:45:59;3.65;;;2.15;;
16262;SDS011;8239;48.594;8.598;2023-08-30T10:48:36;2.25;;;2.15;;
16262;SDS011;8239;48.594;8.598;2023-08-30T10:51:04;3.00;;;2.70;;
16262;SDS011;8239;48.594;8.598;2023-08-30T10:53:32;2.30;;;2.20;;
16262;SDS011;8239;48.594;8.598;2023-08-30T10:56:02;2.78;;;2.58;;
16262;SDS011;8239;48.594;8.598;2023-08-30T10:58:38;2.60;;;2.40;;
16262;SDS011;8239;48.594;8.598;2023-08-30T11:01:07;3.15;;;2.80;;
16262;SDS011;8239;48.594;8.598;2023-08-30T11:03:39;3.08;;;2.70;;
16262;SDS011;8239;48.594;8.598;2023-08-30T11:06:07;2.80;;;2.60;;
16262;SDS011;8239;48.594;8.598;2023-08-30T11:08:39;3.42;;;3.13;;
16262;SDS011;8239;48.594;8.598;2023-08-30T11:11:08;3.47;;;3.17;;
16262;SDS011;8239;48.594;8.598;2023-08-30T11:13:37;3.00;;;2.80;;
16262;SDS011;8239;48.594;8.598;2023-08-30T11:16:04;3.30;;;3.10;;
16262;SDS011;8239;48.594;8.598;2023-08-30T11:18:33;2.83;;;2.60;;
16262;SDS011;8239;48.594;8.598;2023-08-30T11:21:05;2.80;;;2.20;;
16262;SDS011;8239;48.594;8.598;2023-08-30T11:23:32;3.10;;;2.80;;
16262;SDS011;8239;48.594;8.598;2023-08-30T11:26:00;2.70;;;2.50;;
16262;SDS011;8239;48.594;8.598;2023-08-30T11:28:29;2.97;;;2.40;;
16262;SDS011;8239;48.594;8.598;2023-08-30T11:30:56;2.10;;;2.00;;
16262;SDS011;8239;48.594;8.598;2023-08-30T11:33:23;1.80;;;1.70;;
16262;SDS011;8239;48.594;8.598;2023-08-30T11:35:50;1.80;;;1.70;;
16262;SDS011;8239;48.594;8.598;2023-08-30T11:38:19;1.80;;;1.70;;
16262;SDS011;8239;48.594;8.598;2023-08-30T11:40:48;1.80;;;1.70;;
16262;SDS011;8239;48.594;8.598;2023-08-30T11:43:16;1.70;;;1.60;;
16262;SDS011;8239;48.594;8.598;2023-08-30T11:45:44;1.63;;;1.52;;
16262;SDS011;8239;48.594;8.598;2023-08-30T11:48:11;2.33;;;1.80;;
16262;SDS011;8239;48.594;8.598;2023-08-30T11:50:38;1.60;;;1.42;;
16262;SDS011;8239;48.594;8.598;2023-08-30T11:53:05;3.35;;;2.03;;
16262;SDS011;8239;48.594;8.598;2023-08-30T11:55:34;1.77;;;1.67;;
16262;SDS011;8239;48.594;8.598;2023-08-30T11:58:01;1.70;;;1.60;;
16262;SDS011;8239;48.594;8.598;2023-08-30T12:00:29;2.03;;;1.80;;
16262;SDS011;8239;48.594;8.598;2023-08-30T12:03:00;1.73;;;1.63;;
16262;SDS011;8239;48.594;8.598;2023-08-30T12:05:27;3.05;;;2.28;;
16262;SDS011;8239;48.594;8.598;2023-08-30T12:07:58;2.63;;;2.08;;
16262;SDS011;8239;48.594;8.598;2023-08-30T12:10:26;2.20;;;2.00;;
16262;SDS011;8239;48.594;8.598;2023-08-30T12:12:56;1.95;;;1.85;;
16262;SDS011;8239;48.594;8.598;2023-08-30T12:15:23;2.10;;;1.92;;
16262;SDS011;8239;48.594;8.598;2023-08-30T12:17:53;1.90;;;1.80;;
16262;SDS011;8239;48.594;8.598;2023-08-30T12:20:20;1.98;;;1.73;;
16262;SDS011;8239;48.594;8.598;2023-08-30T12:22:48;1.75;;;1.58;;
16262;SDS011;8239;48.594;8.598;2023-08-30T12:25:16;2.28;;;1.80;;
16262;SDS011;8239;48.594;8.598;2023-08-30T12:27:44;2.25;;;1.70;;
16262;SDS011;8239;48.594;8.598;2023-08-30T12:30:13;1.77;;;1.67;;
16262;SDS011;8239;48.594;8.598;2023-08-30T12:32:41;1.75;;;1.65;;
16262;SDS011;8239;48.594;8.598;2023-08-30T12:35:08;2.17;;;1.98;;
16262;SDS011;8239;48.594;8.598;2023-08-30T12:37:35;7.00;;;2.47;;
16262;SDS011;8239;48.594;8.598;2023-08-30T12:40:03;1.60;;;1.60;;
16262;SDS011;8239;48.594;8.598;2023-08-30T12:42:31;2.95;;;1.90;;
16262;SDS011;8239;48.594;8.598;2023-08-30T12:44:58;1.92;;;1.83;;
16262;SDS011;8239;48.594;8.598;2023-08-30T12:47:26;2.00;;;1.90;;
16262;SDS011;8239;48.594;8.598;2023-08-30T12:49:53;1.88;;;1.77;;
16262;SDS011;8239;48.594;8.598;2023-08-30T12:52:20;1.90;;;1.80;;
16262;SDS011;8239;48.594;8.598;2023-08-30T12:54:47;2.00;;;1.90;;
16262;SDS011;8239;48.594;8.598;2023-08-30T12:57:15;1.90;;;1.80;;
16262;SDS011;8239;48.594;8.598;2023-08-30T12:59:42;1.70;;;1.60;;
16262;SDS011;8239;48.594;8.598;2023-08-30T13:02:09;1.77;;;1.67;;
16262;SDS011;8239;48.594;8.598;2023-08-30T13:04:37;2.28;;;1.60;;
16262;SDS011;8239;48.594;8.598;2023-08-30T13:07:04;1.70;;;1.60;;
16262;SDS011;8239;48.594;8.598;2023-08-30T13:09:31;1.70;;;1.60;;
16262;SDS011;8239;48.594;8.598;2023-08-30T13:11:58;1.73;;;1.63;;
16262;SDS011;8239;48.594;8.598;2023-08-30T13:14:25;1.58;;;1.48;;
16262;SDS011;8239;48.594;8.598;2023-08-30T13:16:52;1.80;;;1.70;;
16262;SDS011;8239;48.594;8.598;2023-08-30T13:19:19;1.80;;;1.70;;
16262;SDS011;8239;48.594;8.598;2023-08-30T13:21:47;1.73;;;1.63;;
16262;SDS011;8239;48.594;8.598;2023-08-30T13:24:14;1.85;;;1.73;;
16262;SDS011;8239;48.594;8.598;2023-08-30T13:26:41;1.92;;;1.83;;
16262;SDS011;8239;48.594;8.598;2023-08-30T13:29:08;1.90;;;1.80;;
16262;SDS011;8239;48.594;8.598;2023-08-30T13:31:35;1.70;;;1.60;;
16262;SDS011;8239;48.594;8.598;2023-08-30T13:34:02;1.80;;;1.70;;
16262;SDS011;8239;48.594;8.598;2023-08-30T13:36:29;1.80;;;1.70;;
16262;SDS011;8239;48.594;8.598;2023-08-30T13:38:57;1.48;;;1.40;;
16262;SDS011;8239;48.594;8.598;2023-08-30T13:41:24;2.50;;;2.30;;
16262;SDS011;8239;48.594;8.598;2023-08-30T13:43:51;1.67;;;1.65;;
16262;SDS011;8239;48.594;8.598;2023-08-30T13:46:19;2.10;;;1.90;;
16262;SDS011;8239;48.594;8.598;2023-08-30T13:48:49;1.80;;;1.70;;
16262;SDS011;8239;48.594;8.598;2023-08-30T13:51:20;1.73;;;1.63;;
16262;SDS011;8239;48.594;8.598;2023-08-30T13:53:48;1.60;;;1.50;;
16262;SDS011;8239;48.594;8.598;2023-08-30T13:56:16;1.30;;;1.30;;
16262;SDS011;8239;48.594;8.598;2023-08-30T13:58:43;1.48;;;1.40;;
16262;SDS011;8239;48.594;8.598;2023-08-30T14:01:10;2.22;;;1.45;;
16262;SDS011;8239;48.594;8.598;2023-08-30T14:03:38;1.65;;;1.55;;
16262;SDS011;8239;48.594;8.598;2023-08-30T14:06:05;1.50;;;1.40;;
16262;SDS011;8239;48.594;8.598;2023-08-30T14:08:32;2.05;;;1.42;;
16262;SDS011;8239;48.594;8.598;2023-08-30T14:10:59;1.30;;;1.30;;
16262;SDS011;8239;48.594;8.598;2023-08-30T14:13:27;1.48;;;1.38;;
16262;SDS011;8239;48.594;8.598;2023-08-30T14:15:57;1.52;;;1.48;;
16262;SDS011;8239;48.594;8.598;2023-08-30T14:18:24;1.67;;;1.33;;
16262;SDS011;8239;48.594;8.598;2023-08-30T14:20:54;1.50;;;1.40;;
16262;SDS011;8239;48.594;8.598;2023-08-30T14:23:22;1.55;;;1.40;;
16262;SDS011;8239;48.594;8.598;2023-08-30T14:25:54;1.48;;;1.38;;
16262;SDS011;8239;48.594;8.598;2023-08-30T14:28:23;1.85;;;1.50;;
16262;SDS011;8239;48.594;8.598;2023-08-30T14:30:51;1.60;;;1.50;;
16262;SDS011;8239;48.594;8.598;2023-08-30T14:33:19;1.80;;;1.70;;
16262;SDS011;8239;48.594;8.598;2023-08-30T14:35:46;1.98;;;1.67;;
16262;SDS011;8239;48.594;8.598;2023-08-30T14:38:13;3.10;;;1.55;;
16262;SDS011;8239;48.594;8.598;2023-08-30T14:40:40;2.30;;;1.40;;
16262;SDS011;8239;48.594;8.598;2023-08-30T14:43:07;1.77;;;1.52;;
16262;SDS011;8239;48.594;8.598;2023-08-30T14:45:34;1.45;;;1.40;;
16262;SDS011;8239;48.594;8.598;2023-08-30T14:48:02;1.73;;;1.63;;
16262;SDS011;8239;48.594;8.598;2023-08-30T14:50:30;1.45;;;1.30;;
16262;SDS011;8239;48.594;8.598;2023-08-30T14:52:57;1.65;;;1.55;;